Time;durP1;ratioP1;P1;durP2;ratioP2;P2;SDS_P1;SDS_P2;PMS_P1;PMS_P2;Temp;Humidity;BMP_temperature;BMP_pressure;BME280_temperature;BME280_humidity;BME280_pressure;Samples;Min_cycle;Max_cycle;Signal;HPM_P1;HPM_P2
2023/03/16 00:01:04;;;;;;;4.65;2.70;;;;;;;5.41;35.89;101555.53;5029183;28;20053;-72
2023/03/16 00:03:34;;;;;;;4.47;2.85;;;;;;;5.40;35.94;101554.66;5031607;28;20033;-72
2023/03/16 00:06:02;;;;;;;4.85;2.70;;;;;;;5.37;36.09;101557.56;5029589;28;20076;-72
2023/03/16 00:08:29;;;;;;;4.75;2.80;;;;;;;5.35;36.02;101553.19;5029500;28;20049;-72
2023/03/16 00:10:58;;;;;;;5.30;2.80;;;;;;;5.34;36.04;101545.97;5030697;28;20057;-72
2023/03/16 00:13:26;;;;;;;5.18;2.80;;;;;;;5.32;35.94;101537.03;5031398;28;20041;-72
2023/03/16 00:15:56;;;;;;;6.72;3.38;;;;;;;5.30;36.21;101535.28;5030883;28;20137;-72
2023/03/16 00:18:27;;;;;;;7.40;3.65;;;;;;;5.29;36.27;101528.09;5030569;28;20440;-72
2023/03/16 00:20:58;;;;;;;5.85;3.30;;;;;;;5.28;36.50;101528.22;5030671;28;20748;-72
2023/03/16 00:23:27;;;;;;;6.78;4.03;;;;;;;5.26;36.48;101527.41;5029962;28;20042;-72
2023/03/16 00:25:55;;;;;;;5.35;3.85;;;;;;;5.25;36.32;101529.25;5028201;28;20049;-72
2023/03/16 00:28:23;;;;;;;6.57;4.03;;;;;;;5.24;36.40;101524.78;5042280;28;20079;-72
2023/03/16 00:30:51;;;;;;;7.00;4.15;;;;;;;5.22;36.22;101517.66;5050329;28;20044;-72
2023/03/16 00:33:19;;;;;;;6.80;4.15;;;;;;;5.22;36.45;101523.97;5031610;28;20056;-72
2023/03/16 00:35:48;;;;;;;7.00;4.13;;;;;;;5.22;36.25;101528.53;5028445;28;20400;-72
2023/03/16 00:38:20;;;;;;;7.43;4.25;;;;;;;5.20;36.32;101525.91;5031023;28;20069;-72
2023/03/16 00:40:50;;;;;;;5.63;3.63;;;;;;;5.16;36.37;101532.44;5030277;28;20053;-72
2023/03/16 00:43:17;;;;;;;6.60;3.58;;;;;;;5.15;36.49;101530.66;5030017;28;20452;-72
2023/03/16 00:45:46;;;;;;;5.80;3.83;;;;;;;5.15;36.60;101518.94;5050533;28;20064;-72
2023/03/16 00:48:15;;;;;;;6.35;3.22;;;;;;;5.14;36.48;101525.31;5010899;28;20470;-72
2023/03/16 00:50:43;;;;;;;7.13;3.70;;;;;;;5.11;36.42;101522.78;5022648;28;20095;-72
2023/03/16 00:53:11;;;;;;;5.63;3.35;;;;;;;5.10;36.40;101521.91;5031128;28;20033;-72
2023/03/16 00:55:41;;;;;;;5.63;3.15;;;;;;;5.11;36.35;101515.53;5050260;28;20045;-72
2023/03/16 00:58:13;;;;;;;5.68;3.03;;;;;;;5.10;36.52;101515.59;5032548;28;20072;-72
2023/03/16 01:00:41;;;;;;;6.13;3.15;;;;;;;5.07;36.68;101527.50;5027248;28;20046;-72
2023/03/16 01:03:09;;;;;;;4.68;2.83;;;;;;;5.08;36.58;101520.22;5030116;28;20045;-72
2023/03/16 01:05:40;;;;;;;4.53;2.92;;;;;;;5.06;36.67;101523.03;5027914;28;20343;-72
2023/03/16 01:08:09;;;;;;;5.60;3.10;;;;;;;5.05;36.47;101510.41;5028453;28;20057;-72
2023/03/16 01:10:36;;;;;;;4.35;2.92;;;;;;;5.05;36.62;101507.69;5009017;28;20054;-72
2023/03/16 01:13:06;;;;;;;4.72;2.83;;;;;;;5.04;36.59;101496.97;5010364;28;20037;-72
2023/03/16 01:15:34;;;;;;;5.90;2.60;;;;;;;5.02;36.59;101493.44;5009991;28;20045;-72
2023/03/16 01:18:02;;;;;;;6.13;3.08;;;;;;;4.99;36.79;101490.88;5009733;28;20073;-72
2023/03/16 01:20:32;;;;;;;5.72;2.75;;;;;;;5.00;36.68;101498.94;5020132;28;20038;-72
2023/03/16 01:23:01;;;;;;;5.38;2.78;;;;;;;5.00;36.89;101503.50;5028397;28;20618;-72
2023/03/16 01:25:28;;;;;;;4.47;2.75;;;;;;;4.98;36.72;101490.00;5028515;28;20409;-72
2023/03/16 01:27:56;;;;;;;4.70;2.90;;;;;;;4.99;36.87;101488.19;5029321;28;20038;-72
2023/03/16 01:30:26;;;;;;;4.80;2.88;;;;;;;5.00;36.71;101481.78;5027699;28;20053;-72
2023/03/16 01:32:55;;;;;;;4.60;2.95;;;;;;;4.99;36.63;101477.31;5028255;28;20476;-72
2023/03/16 01:35:23;;;;;;;4.57;2.97;;;;;;;4.98;36.49;101472.84;5034586;28;20075;-72
2023/03/16 01:37:51;;;;;;;6.28;2.78;;;;;;;4.95;36.75;101479.34;5028250;28;20041;-72
2023/03/16 01:40:23;;;;;;;4.17;2.73;;;;;;;4.95;36.87;101473.03;5027554;28;20052;-72
2023/03/16 01:43:04;;;;;;;5.22;2.80;;;;;;;4.97;36.88;101466.56;5035588;28;20076;-72
2023/03/16 01:46:20;;;;;;;5.53;2.75;;;;;;;4.92;36.74;101465.94;5043244;28;20037;-72
2023/03/16 01:49:05;;;;;;;4.03;2.50;;;;;;;4.96;36.83;101456.69;4970881;28;20498;-72
2023/03/16 01:51:38;;;;;;;4.78;2.70;;;;;;;4.96;36.78;101458.53;5024517;28;20057;-72
2023/03/16 01:54:09;;;;;;;4.45;2.65;;;;;;;4.93;36.74;101441.44;5028713;28;20463;-72
2023/03/16 01:56:41;;;;;;;4.35;2.33;;;;;;;4.95;36.87;101441.38;5028659;28;20045;-73
2023/03/16 01:59:16;;;;;;;5.70;2.35;;;;;;;4.93;36.82;101448.72;5027568;28;20096;-73
2023/03/16 02:01:48;;;;;;;5.07;2.35;;;;;;;4.92;36.76;101447.84;5032064;28;20129;-73
2023/03/16 02:04:32;;;;;;;4.03;2.40;;;;;;;4.93;37.02;101452.28;5030621;28;20045;-73
2023/03/16 02:07:03;;;;;;;4.65;2.30;;;;;;;4.89;36.74;101445.28;5026865;28;20049;-73
2023/03/16 02:09:32;;;;;;;3.63;2.38;;;;;;;4.90;36.89;101443.44;5028001;28;20057;-73
2023/03/16 02:12:00;;;;;;;4.13;2.40;;;;;;;4.91;36.84;101442.47;5041916;28;20463;-73
2023/03/16 02:14:30;;;;;;;3.83;2.10;;;;;;;4.90;36.94;101440.72;5041792;28;20054;-73
2023/03/16 02:16:59;;;;;;;3.55;2.53;;;;;;;4.92;36.90;101433.38;5026909;28;20468;-73
2023/03/16 02:19:42;;;;;;;4.47;2.47;;;;;;;4.93;36.82;101427.00;5033693;28;20041;-73
2023/03/16 02:22:10;;;;;;;4.72;2.50;;;;;;;4.91;37.00;101428.91;5032809;28;20052;-72
2023/03/16 02:24:38;;;;;;;3.70;2.30;;;;;;;4.92;36.89;101427.97;5022272;28;20037;-72
2023/03/16 02:27:09;;;;;;;4.88;2.30;;;;;;;4.93;37.00;101418.88;5022465;28;20133;-72
2023/03/16 02:30:08;;;;;;;5.13;2.80;;;;;;;4.88;36.91;101410.97;5032345;28;20037;-71
2023/03/16 02:32:46;;;;;;;4.28;2.40;;;;;;;4.90;36.87;101414.47;4971360;28;20132;-72
2023/03/16 02:35:14;;;;;;;4.00;2.30;;;;;;;4.90;36.97;101422.63;5024578;28;21371;-72
2023/03/16 02:37:42;;;;;;;4.75;2.47;;;;;;;4.92;37.10;101411.69;5023083;28;20072;-72
2023/03/16 02:40:21;;;;;;;6.72;2.60;;;;;;;4.95;36.46;101411.53;5022316;28;20424;-72
2023/03/16 02:42:56;;;;;;;4.68;2.50;;;;;;;4.91;36.77;101407.22;5021240;28;20046;-71
2023/03/16 02:45:32;;;;;;;4.55;2.25;;;;;;;4.91;36.94;101394.53;5019967;28;20050;-71
2023/03/16 02:48:05;;;;;;;4.22;2.22;;;;;;;4.91;36.91;101399.09;5019608;28;20041;-73
2023/03/16 02:50:33;;;;;;;3.50;2.30;;;;;;;4.87;37.12;101401.13;5028436;28;20049;-73
2023/03/16 02:53:01;;;;;;;3.70;2.30;;;;;;;4.88;37.05;101397.41;5026121;28;20049;-73
2023/03/16 02:55:29;;;;;;;3.75;2.30;;;;;;;4.89;37.00;101395.56;5025176;28;20497;-72
2023/03/16 02:57:57;;;;;;;4.10;2.30;;;;;;;4.89;36.96;101395.56;5022945;28;20049;-73
2023/03/16 03:00:28;;;;;;;5.22;2.38;;;;;;;4.89;36.77;101387.44;5021273;28;20049;-73
2023/03/16 03:02:57;;;;;;;5.43;2.30;;;;;;;4.88;37.06;101383.00;5024141;28;20502;-73
2023/03/16 03:05:25;;;;;;;4.28;2.10;;;;;;;4.86;36.94;101377.66;5023257;28;20041;-73
2023/03/16 03:07:53;;;;;;;4.28;2.30;;;;;;;4.86;36.83;101380.38;5013805;28;20512;-73
2023/03/16 03:10:21;;;;;;;4.95;2.35;;;;;;;4.87;37.06;101374.00;5029697;28;20042;-73
2023/03/16 03:12:49;;;;;;;4.72;2.15;;;;;;;4.87;36.93;101374.00;5037912;28;20053;-73
2023/03/16 03:15:18;;;;;;;4.82;2.10;;;;;;;4.87;36.78;101364.97;5022149;28;20132;-73
2023/03/16 03:17:57;;;;;;;5.80;2.33;;;;;;;4.87;37.00;101373.13;5023123;28;20061;-73
2023/03/16 03:20:28;;;;;;;4.07;2.10;;;;;;;4.85;36.84;101369.59;5026607;28;20848;-73
2023/03/16 03:22:56;;;;;;;5.38;2.78;;;;;;;4.86;36.91;101374.06;5025745;28;20824;-73
2023/03/16 03:25:24;;;;;;;4.40;2.13;;;;;;;4.83;36.94;101374.22;5025077;28;20041;-73
2023/03/16 03:27:54;;;;;;;3.92;1.90;;;;;;;4.82;36.85;101369.75;5028284;28;20042;-73
2023/03/16 03:30:24;;;;;;;3.58;2.00;;;;;;;4.81;36.86;101363.47;5023036;28;20539;-73
2023/03/16 03:32:53;;;;;;;3.58;2.10;;;;;;;4.78;37.00;101362.78;5029423;28;20176;-73
2023/03/16 03:35:23;;;;;;;4.65;2.55;;;;;;;4.79;37.04;101367.25;5031078;28;20045;-73
2023/03/16 03:37:51;;;;;;;4.07;2.30;;;;;;;4.77;36.94;101375.44;5026556;28;20045;-73
2023/03/16 03:40:20;;;;;;;3.55;2.20;;;;;;;4.78;36.92;101366.38;5024208;28;20056;-73
2023/03/16 03:42:54;;;;;;;4.35;2.05;;;;;;;4.76;36.99;101360.13;5026258;28;20144;-73
2023/03/16 03:45:23;;;;;;;4.30;2.05;;;;;;;4.76;36.98;101361.97;5031794;28;20505;-73
2023/03/16 03:47:51;;;;;;;4.32;2.35;;;;;;;4.73;36.96;101364.84;5025859;28;20038;-73
2023/03/16 03:50:21;;;;;;;3.72;1.95;;;;;;;4.75;37.19;101365.63;5025372;28;20053;-73
2023/03/16 03:53:01;;;;;;;4.20;2.20;;;;;;;4.74;36.99;101363.88;5025553;28;20109;-73
2023/03/16 03:55:31;;;;;;;3.67;2.33;;;;;;;4.71;37.18;101373.09;5025725;28;20045;-73
2023/03/16 03:58:00;;;;;;;3.17;1.95;;;;;;;4.73;37.06;101351.28;5027269;28;20421;-73
2023/03/16 04:00:29;;;;;;;3.95;2.50;;;;;;;4.73;37.17;101362.13;5025007;28;20099;-72
2023/03/16 04:02:57;;;;;;;3.50;2.38;;;;;;;4.73;36.98;101368.44;5025524;28;20513;-73
2023/03/16 04:05:32;;;;;;;3.53;2.00;;;;;;;4.73;37.04;101356.72;5026395;28;20052;-73
2023/03/16 04:08:03;;;;;;;4.07;2.17;;;;;;;4.73;37.01;101359.41;5024430;28;20052;-73
2023/03/16 04:10:31;;;;;;;4.43;2.05;;;;;;;4.70;37.15;101352.34;5025238;28;20510;-73
2023/03/16 04:13:00;;;;;;;3.47;1.85;;;;;;;4.71;37.38;101351.41;5026112;28;20420;-73
2023/03/16 04:15:32;;;;;;;3.35;1.98;;;;;;;4.69;37.24;101347.88;5034023;28;20041;-73
2023/03/16 04:18:22;;;;;;;4.43;2.03;;;;;;;4.70;37.24;101348.75;5025829;28;20072;-73
2023/03/16 04:20:52;;;;;;;4.13;2.20;;;;;;;4.70;37.17;101343.34;5026166;28;20124;-73
2023/03/16 04:23:23;;;;;;;3.78;2.20;;;;;;;4.71;37.14;101342.38;5028330;28;20042;-73
2023/03/16 04:25:53;;;;;;;4.65;2.13;;;;;;;4.70;37.04;101341.50;5032194;28;20075;-73
2023/03/16 04:28:25;;;;;;;4.63;2.30;;;;;;;4.69;36.98;101342.47;5027618;28;20049;-73
2023/03/16 04:30:53;;;;;;;3.60;1.80;;;;;;;4.69;37.00;101336.16;5024109;28;20041;-74
2023/03/16 04:33:31;;;;;;;4.63;2.30;;;;;;;4.68;37.29;101343.41;5018974;28;20174;-73
2023/03/16 04:36:01;;;;;;;4.05;2.50;;;;;;;4.69;37.28;101334.34;5026640;28;20769;-73
2023/03/16 04:38:32;;;;;;;4.82;2.17;;;;;;;4.69;37.30;101326.19;5034633;28;20103;-73
2023/03/16 04:41:01;;;;;;;5.77;3.03;;;;;;;4.66;37.07;101323.66;5024935;28;20084;-73
2023/03/16 04:43:34;;;;;;;3.92;2.15;;;;;;;4.66;37.14;101328.19;5028041;28;20052;-73
2023/03/16 04:46:15;;;;;;;4.32;2.20;;;;;;;4.67;37.25;101325.41;5023361;28;20064;-73
2023/03/16 04:48:43;;;;;;;3.95;1.98;;;;;;;4.67;37.31;101319.09;5028741;28;20044;-73
2023/03/16 04:51:11;;;;;;;4.55;2.40;;;;;;;4.69;37.36;101319.91;5027856;28;20049;-73
2023/03/16 04:53:46;;;;;;;4.75;2.38;;;;;;;4.68;37.22;101319.03;5035865;28;20041;-73
2023/03/16 04:56:22;;;;;;;4.43;2.00;;;;;;;4.68;37.16;101324.44;5025524;28;20057;-73
2023/03/16 04:58:55;;;;;;;4.60;2.40;;;;;;;4.66;37.32;101320.94;5033653;28;20041;-73
2023/03/16 05:01:26;;;;;;;4.25;2.28;;;;;;;4.67;37.19;101324.53;5023455;28;20041;-73
2023/03/16 05:03:57;;;;;;;4.10;2.35;;;;;;;4.66;37.28;101320.06;5026713;28;20053;-73
2023/03/16 05:06:27;;;;;;;4.07;2.40;;;;;;;4.65;37.41;101315.59;5025593;28;20065;-73
2023/03/16 05:09:00;;;;;;;3.55;2.42;;;;;;;4.67;37.36;101324.53;5022452;28;20426;-73
2023/03/16 05:11:29;;;;;;;3.83;2.42;;;;;;;4.65;37.40;101319.19;5031699;28;20045;-73
2023/03/16 05:14:01;;;;;;;4.10;2.45;;;;;;;4.65;37.31;101316.47;5025506;28;20393;-72
2023/03/16 05:16:31;;;;;;;5.97;2.70;;;;;;;4.63;37.38;101313.00;5017177;28;20049;-71
2023/03/16 05:19:00;;;;;;;6.00;2.78;;;;;;;4.65;37.32;101311.03;5024574;28;20556;-74
2023/03/16 05:21:33;;;;;;;5.07;2.67;;;;;;;4.64;37.26;101311.13;5022909;28;20064;-74
2023/03/16 05:24:06;;;;;;;6.35;2.97;;;;;;;4.62;37.39;101316.66;5034066;28;20077;-74
2023/03/16 05:26:34;;;;;;;3.97;2.50;;;;;;;4.63;37.34;101310.28;5024802;28;20045;-74
2023/03/16 05:29:04;;;;;;;4.40;2.80;;;;;;;4.64;37.48;101314.72;5024294;28;20041;-71
2023/03/16 05:31:33;;;;;;;5.30;2.65;;;;;;;4.64;37.48;101317.41;5026081;28;20045;-74
2023/03/16 05:34:04;;;;;;;5.82;3.10;;;;;;;4.63;37.52;101309.41;5024874;28;20076;-74
2023/03/16 05:36:34;;;;;;;5.30;2.90;;;;;;;4.65;37.56;101312.88;5025544;28;20091;-75
2023/03/16 05:39:09;;;;;;;4.70;2.63;;;;;;;4.65;37.80;101307.47;5023607;28;20045;-74
2023/03/16 05:41:41;;;;;;;6.13;2.95;;;;;;;4.65;37.68;101308.34;5019670;28;20050;-74
2023/03/16 05:44:15;;;;;;;5.07;3.05;;;;;;;4.66;37.62;101311.94;5022564;28;20049;-74
2023/03/16 05:47:21;;;;;;;6.15;2.95;;;;;;;4.61;37.55;101311.31;4980884;28;20054;-72
2023/03/16 05:49:54;;;;;;;4.78;2.88;;;;;;;4.61;37.51;101316.75;5002819;28;20049;-71
2023/03/16 05:52:29;;;;;;;5.70;3.10;;;;;;;4.63;37.48;101318.41;5025626;28;20041;-71
2023/03/16 05:55:02;;;;;;;5.50;2.92;;;;;;;4.65;37.62;101318.31;5023608;28;20441;-71
2023/03/16 05:57:30;;;;;;;5.82;3.30;;;;;;;4.62;37.90;101323.91;5030653;28;20505;-74
2023/03/16 06:00:00;;;;;;;4.85;3.08;;;;;;;4.63;37.77;101320.25;5022858;28;20500;-71
2023/03/16 06:02:38;;;;;;;5.55;3.13;;;;;;;4.62;37.76;101316.66;5025296;28;20168;-74
2023/03/16 06:05:07;;;;;;;4.82;3.17;;;;;;;4.62;37.64;101324.78;5023739;28;20049;-74
2023/03/16 06:07:38;;;;;;;5.47;2.90;;;;;;;4.64;37.85;101321.97;5035714;28;20400;-74
2023/03/16 06:10:10;;;;;;;5.90;3.10;;;;;;;4.63;37.96;101323.84;5016697;28;20124;-74
2023/03/16 06:12:38;;;;;;;8.20;3.33;;;;;;;4.64;37.89;101330.09;5022548;28;20038;-74
2023/03/16 06:15:08;;;;;;;6.32;3.38;;;;;;;4.64;37.84;101311.13;5027740;28;20041;-74
2023/03/16 06:17:37;;;;;;;6.68;3.17;;;;;;;4.64;37.93;101317.41;5029742;28;20508;-74
2023/03/16 06:20:09;;;;;;;5.75;3.65;;;;;;;4.64;38.04;101316.53;5024531;28;20091;-73
2023/03/16 06:22:40;;;;;;;5.78;3.40;;;;;;;4.62;37.98;101318.50;5024820;28;20041;-75
2023/03/16 06:25:11;;;;;;;6.93;3.95;;;;;;;4.61;37.94;101325.75;5033994;28;20056;-74
2023/03/16 06:27:41;;;;;;;5.85;3.40;;;;;;;4.60;37.83;101318.56;5037746;28;20060;-74
2023/03/16 06:30:14;;;;;;;4.60;2.92;;;;;;;4.63;37.74;101323.84;5022164;28;20045;-74
2023/03/16 06:32:43;;;;;;;6.15;3.58;;;;;;;4.62;37.95;101313.94;5022712;28;20563;-71
2023/03/16 06:35:12;;;;;;;7.15;3.42;;;;;;;4.63;38.26;101315.69;5023333;28;20592;-74
2023/03/16 06:37:45;;;;;;;7.57;3.80;;;;;;;4.62;38.13;101318.50;5030574;28;20139;-74
2023/03/16 06:40:30;;;;;;;6.47;3.50;;;;;;;4.65;37.95;101323.72;5025758;28;20077;-74
2023/03/16 06:42:57;;;;;;;4.90;3.20;;;;;;;4.66;37.96;101328.19;5021258;28;20148;-73
2023/03/16 06:45:26;;;;;;;6.60;3.70;;;;;;;4.67;38.05;101330.81;5028274;28;20147;-73
2023/03/16 06:47:55;;;;;;;5.05;3.38;;;;;;;4.68;38.25;101332.56;5021857;28;20045;-72
2023/03/16 06:50:23;;;;;;;6.65;3.60;;;;;;;4.70;38.16;101333.38;5030286;28;20052;-73
2023/03/16 06:52:51;;;;;;;5.32;3.47;;;;;;;4.73;38.22;101329.59;5033358;28;20068;-72
2023/03/16 06:55:19;;;;;;;6.80;3.38;;;;;;;4.74;38.28;101332.22;5024374;28;20132;-73
2023/03/16 06:57:50;;;;;;;6.18;3.20;;;;;;;4.78;38.35;101328.41;5028272;28;20639;-72
2023/03/16 07:00:19;;;;;;;5.20;3.47;;;;;;;4.80;38.42;101340.00;5028173;28;20106;-72
2023/03/16 07:02:47;;;;;;;5.22;3.30;;;;;;;4.83;38.38;101338.97;5030340;28;20045;-72
2023/03/16 07:05:15;;;;;;;5.60;3.50;;;;;;;4.86;38.31;101336.09;5028456;28;20495;-71
2023/03/16 07:07:44;;;;;;;8.38;3.47;;;;;;;4.87;38.30;101336.03;5022187;28;20045;-71
2023/03/16 07:10:14;;;;;;;5.30;2.97;;;;;;;4.91;38.20;101339.41;5024218;28;20037;-69
2023/03/16 07:12:42;;;;;;;7.53;2.97;;;;;;;4.92;38.08;101341.16;5021147;28;20045;-72
2023/03/16 07:15:13;;;;;;;5.28;3.40;;;;;;;4.95;38.36;101334.72;5022420;28;20041;-73
2023/03/16 07:17:41;;;;;;;7.47;3.45;;;;;;;4.94;38.04;101339.25;5026736;28;20052;-72
2023/03/16 07:20:11;;;;;;;5.90;3.33;;;;;;;4.96;38.37;101340.06;5026666;28;20428;-72
2023/03/16 07:22:40;;;;;;;6.13;3.65;;;;;;;4.94;38.26;101341.97;5036941;28;20045;-72
2023/03/16 07:25:11;;;;;;;5.32;3.40;;;;;;;4.96;38.18;101344.59;4995139;23;20410;-79
2023/03/16 07:27:45;;;;;;;;;;;;;;;4.72;38.72;101334.13;4995993;28;20073;-79
2023/03/16 07:30:19;;;;;;;5.72;3.20;;;;;;;4.93;38.27;101340.22;4970135;28;19922;-79
2023/03/16 07:32:49;;;;;;;6.20;3.40;;;;;;;4.95;38.11;101345.56;4972194;28;20071;-79
2023/03/16 07:35:20;;;;;;;6.60;3.58;;;;;;;4.96;38.18;101347.31;4976732;28;20047;-80
2023/03/16 07:37:48;;;;;;;6.63;3.25;;;;;;;4.96;38.16;101347.31;4989901;28;20057;-79
2023/03/16 07:40:17;;;;;;;5.47;3.30;;;;;;;4.97;38.08;101340.91;4984917;28;20055;-79
2023/03/16 07:42:44;;;;;;;5.05;3.33;;;;;;;4.96;38.36;101345.47;4986763;28;20109;-79
2023/03/16 07:45:27;;;;;;;5.97;3.15;;;;;;;4.98;38.24;101345.38;4985619;28;20055;-79
2023/03/16 07:47:57;;;;;;;4.75;3.10;;;;;;;4.99;38.21;101337.16;4987441;28;20110;-79
2023/03/16 07:50:37;;;;;;;4.93;3.00;;;;;;;4.97;38.42;101330.94;4989490;28;20046;-79
2023/03/16 07:53:05;;;;;;;6.22;3.65;;;;;;;5.00;38.30;101338.03;4988894;28;20042;-79
2023/03/16 07:55:37;;;;;;;5.72;3.42;;;;;;;5.01;38.27;101345.19;4990662;28;20046;-79
2023/03/16 07:58:09;;;;;;;5.97;3.35;;;;;;;5.00;38.38;101347.03;4993588;28;20537;-79
2023/03/16 08:00:41;;;;;;;5.50;3.55;;;;;;;5.03;38.39;101333.31;4986584;28;20074;-80
2023/03/16 08:03:09;;;;;;;5.50;3.22;;;;;;;5.03;38.50;101337.88;4989319;28;20061;-79
2023/03/16 08:05:38;;;;;;;7.13;3.53;;;;;;;5.04;38.28;101339.63;4991243;28;20112;-79
2023/03/16 08:08:11;;;;;;;6.95;3.90;;;;;;;5.05;38.25;101350.34;4991122;28;20116;-80
2023/03/16 08:10:40;;;;;;;6.20;3.53;;;;;;;5.07;38.45;101337.59;4987392;28;20054;-79
2023/03/16 08:13:21;;;;;;;6.47;3.85;;;;;;;5.08;38.34;101339.34;4992606;28;20454;-79
2023/03/16 08:15:57;;;;;;;6.20;3.67;;;;;;;5.10;38.56;101329.28;4990922;28;20047;-79
2023/03/16 08:18:36;;;;;;;6.60;3.95;;;;;;;5.08;38.44;101331.19;4993060;28;20514;-80
2023/03/16 08:21:05;;;;;;;6.82;3.63;;;;;;;5.11;38.61;101331.03;4993728;28;20112;-80
2023/03/16 08:23:34;;;;;;;6.85;3.50;;;;;;;5.13;38.74;101331.81;5013240;23;20531;-77
2023/03/16 08:26:07;;;;;;;6.82;3.65;;;;;;;5.15;38.79;101321.75;5010270;28;20050;-77
2023/03/16 08:28:36;;;;;;;6.53;3.90;;;;;;;5.15;38.93;101326.28;5010376;28;20497;-77
2023/03/16 08:31:11;;;;;;;6.70;3.72;;;;;;;5.20;38.67;101311.56;5005265;28;20038;-77
2023/03/16 08:33:51;;;;;;;5.97;3.40;;;;;;;5.19;38.83;101315.22;5017725;28;20053;-77
2023/03/16 08:36:23;;;;;;;5.93;3.38;;;;;;;5.24;38.82;101314.94;5018203;28;20054;-77
2023/03/16 08:38:54;;;;;;;6.00;3.53;;;;;;;5.28;38.75;101313.81;5021913;28;20045;-78
2023/03/16 08:41:39;;;;;;;6.00;3.58;;;;;;;5.29;38.89;101315.56;5040173;28;20073;-77
2023/03/16 08:44:14;;;;;;;7.20;4.30;;;;;;;5.31;38.82;101316.34;5022351;28;20049;-77
2023/03/16 08:46:43;;;;;;;6.90;3.78;;;;;;;5.34;38.66;101331.56;5019506;28;20516;-78
2023/03/16 08:49:13;;;;;;;7.72;4.10;;;;;;;5.36;38.80;101327.81;5038358;28;20072;-77
2023/03/16 08:51:42;;;;;;;7.32;4.05;;;;;;;5.39;38.81;101329.44;5023239;28;20064;-78
2023/03/16 08:54:11;;;;;;;5.55;3.58;;;;;;;5.41;38.69;101324.81;5026849;28;20053;-78
2023/03/16 08:56:39;;;;;;;7.88;3.85;;;;;;;5.43;38.77;101328.31;5026129;28;20072;-78
2023/03/16 08:59:07;;;;;;;5.82;3.30;;;;;;;5.44;38.73;101324.66;5027191;28;20176;-78
2023/03/16 09:01:52;;;;;;;6.10;3.60;;;;;;;5.48;38.86;101335.22;5019690;28;20042;-78
2023/03/16 09:04:20;;;;;;;6.93;3.78;;;;;;;5.49;39.18;101333.38;5022433;28;20436;-77
2023/03/16 09:06:50;;;;;;;5.60;3.47;;;;;;;5.55;39.03;101322.16;5027413;28;20140;-77
2023/03/16 09:09:35;;;;;;;7.63;4.30;;;;;;;5.55;39.04;101319.44;5023891;28;20041;-77
2023/03/16 09:12:04;;;;;;;6.28;3.70;;;;;;;5.59;38.85;101323.72;5015491;28;20046;-77
2023/03/16 09:14:33;;;;;;;7.30;4.35;;;;;;;5.58;38.75;101333.72;5022703;28;20042;-77
2023/03/16 09:17:02;;;;;;;6.47;3.85;;;;;;;5.64;38.73;101329.75;5022434;28;20057;-77
2023/03/16 09:19:33;;;;;;;7.88;4.18;;;;;;;5.63;38.73;101323.44;5031464;28;20041;-78
2023/03/16 09:22:18;;;;;;;6.30;3.88;;;;;;;5.65;38.95;101313.38;5029288;28;20057;-77
2023/03/16 09:24:46;;;;;;;5.82;3.60;;;;;;;5.68;39.08;101305.06;5031579;28;20042;-77
2023/03/16 09:27:15;;;;;;;6.57;3.85;;;;;;;5.71;38.96;101314.84;5019579;28;20084;-77
2023/03/16 09:29:44;;;;;;;6.80;3.90;;;;;;;5.74;39.03;101311.94;5022966;28;20033;-77
2023/03/16 09:32:14;;;;;;;5.78;3.83;;;;;;;5.79;39.11;101315.25;4987175;28;20041;-78
2023/03/16 09:34:42;;;;;;;6.53;3.80;;;;;;;5.81;39.08;101307.00;5026381;28;20059;-78
2023/03/16 09:37:10;;;;;;;6.70;3.92;;;;;;;5.85;38.90;101314.03;5024263;28;20046;-78
2023/03/16 09:39:38;;;;;;;6.65;3.78;;;;;;;5.87;39.02;101299.38;5025955;28;20507;-78
2023/03/16 09:42:19;;;;;;;5.90;3.92;;;;;;;5.93;38.86;101296.28;5020396;28;20464;-77
2023/03/16 09:44:59;;;;;;;5.68;3.75;;;;;;;5.94;39.12;101284.47;5024194;28;20040;-78
2023/03/16 09:47:33;;;;;;;6.43;3.85;;;;;;;5.97;39.16;101284.25;5022174;28;20420;-77
2023/03/16 09:50:05;;;;;;;5.45;3.67;;;;;;;5.99;39.05;101273.28;5019619;28;20056;-78
2023/03/16 09:52:41;;;;;;;6.60;3.50;;;;;;;6.03;38.95;101275.75;5025547;28;20722;-77
2023/03/16 10:06:18;;;;;;;5.40;3.42;;;;;;;6.07;39.03;101244.69;5018386;28;20123;-77
2023/03/16 10:08:51;;;;;;;;;;;;;;;5.88;39.23;101244.06;5027376;28;20068;-77
2023/03/16 10:11:34;;;;;;;6.00;3.20;;;;;;;6.12;39.20;101251.69;5023196;28;19960;-77
2023/03/16 10:17:04;;;;;;;5.68;3.10;;;;;;;6.21;38.70;101257.38;5021925;28;20053;-78
2023/03/16 10:19:48;;;;;;;;;;;;;;;6.00;39.23;101248.75;5019366;28;20509;-77
2023/03/16 10:22:25;;;;;;;5.60;3.70;;;;;;;6.24;38.99;101249.06;5014425;28;19921;-77
2023/03/16 10:25:02;;;;;;;5.78;3.67;;;;;;;6.34;38.99;101255.66;5017348;28;20050;-76
2023/03/16 10:27:33;;;;;;;5.43;3.28;;;;;;;6.37;39.12;101251.84;5017188;28;20111;-77
2023/03/16 10:30:03;;;;;;;5.15;3.28;;;;;;;6.43;38.94;101246.03;5018637;28;20470;-77
2023/03/16 10:32:34;;;;;;;5.63;3.20;;;;;;;6.46;38.93;101251.25;5021969;28;20053;-77
2023/03/16 10:35:07;;;;;;;5.53;3.50;;;;;;;6.51;38.94;101254.59;5017641;28;20070;-77
2023/03/16 10:37:37;;;;;;;5.05;3.13;;;;;;;6.53;38.78;101247.19;5017693;28;20076;-77
2023/03/16 10:40:11;;;;;;;5.30;3.50;;;;;;;6.59;38.85;101251.38;5024675;28;20099;-76
2023/03/16 10:42:40;;;;;;;5.15;3.13;;;;;;;6.62;38.85;101240.28;5028261;28;20029;-78
2023/03/16 10:45:23;;;;;;;5.30;3.13;;;;;;;6.70;38.41;101237.91;5025157;28;20052;-78
2023/03/16 10:47:51;;;;;;;5.22;2.83;;;;;;;6.69;38.93;101237.06;5023468;28;20073;-78
2023/03/16 10:50:23;;;;;;;5.68;3.28;;;;;;;6.79;38.90;101234.63;5016780;28;20045;-78
2023/03/16 10:52:55;;;;;;;6.30;3.47;;;;;;;6.82;38.57;101209.97;5017445;28;20049;-78
2023/03/16 10:55:29;;;;;;;6.15;3.40;;;;;;;6.90;38.53;101217.59;5022449;28;20044;-78
2023/03/16 10:57:58;;;;;;;6.28;2.90;;;;;;;6.94;38.82;101216.44;5025400;28;20087;-78
2023/03/16 11:00:28;;;;;;;5.97;2.88;;;;;;;7.01;39.09;101209.63;5025593;28;20056;-77
2023/03/16 11:02:58;;;;;;;4.93;2.88;;;;;;;7.07;38.85;101210.06;5025270;28;20038;-78
2023/03/16 11:05:30;;;;;;;4.10;2.70;;;;;;;7.15;38.26;101204.09;5024120;28;20053;-77
2023/03/16 11:08:02;;;;;;;4.93;2.85;;;;;;;7.20;38.61;101205.53;5028621;28;20045;-78
2023/03/16 11:10:33;;;;;;;4.55;2.60;;;;;;;7.26;38.48;101193.38;5025400;28;20440;-80
2023/03/16 11:13:13;;;;;;;6.07;2.63;;;;;;;7.33;37.95;101193.81;5023555;28;20568;-77
2023/03/16 11:15:47;;;;;;;4.88;2.53;;;;;;;7.37;38.21;101201.66;5023383;28;20038;-79
2023/03/16 11:18:32;;;;;;;5.05;2.60;;;;;;;7.42;37.78;101190.47;5026398;28;20069;-77
2023/03/16 11:21:06;;;;;;;4.57;2.63;;;;;;;7.46;38.10;101181.94;5025067;28;20062;-77
2023/03/16 11:23:41;;;;;;;4.47;2.88;;;;;;;7.51;37.72;101198.88;5025406;28;20079;-78
2023/03/16 11:26:18;;;;;;;4.68;3.00;;;;;;;7.59;37.63;101179.25;5024952;28;20458;-78
2023/03/16 11:28:50;;;;;;;4.60;2.47;;;;;;;7.65;37.71;101177.94;5018337;28;20069;-77
2023/03/16 11:31:26;;;;;;;5.93;3.10;;;;;;;7.70;37.85;101170.31;5026166;28;20533;-78
2023/03/16 11:33:56;;;;;;;5.28;2.67;;;;;;;7.78;38.01;101170.66;5032429;28;20057;-80
2023/03/16 11:36:36;;;;;;;4.35;2.78;;;;;;;7.87;37.58;101165.41;5026585;28;20107;-79
2023/03/16 11:39:14;;;;;;;4.13;2.55;;;;;;;7.96;37.20;101174.78;5028666;28;20060;-78
2023/03/16 11:41:53;;;;;;;4.65;2.53;;;;;;;8.05;36.91;101157.78;5033529;28;20567;-78
2023/03/16 11:44:31;;;;;;;4.55;2.78;;;;;;;8.07;36.75;101149.50;5031059;28;20080;-78
2023/03/16 11:47:07;;;;;;;4.75;2.90;;;;;;;8.16;36.80;101167.94;5032132;28;20058;-78
2023/03/16 11:49:55;;;;;;;4.82;3.10;;;;;;;8.23;37.20;101142.84;5023813;28;20042;-75
2023/03/16 11:52:34;;;;;;;4.60;2.50;;;;;;;8.29;36.89;101150.56;5025185;28;20057;-78
2023/03/16 11:55:21;;;;;;;4.47;2.67;;;;;;;8.37;36.53;101139.09;5018001;28;20077;-80
2023/03/16 11:57:57;;;;;;;3.85;2.58;;;;;;;8.43;37.07;101132.28;5025676;28;20049;-78
2023/03/16 12:00:38;;;;;;;3.97;2.35;;;;;;;8.50;36.87;101129.03;5028132;28;20085;-78
2023/03/16 12:03:35;;;;;;;5.13;2.50;;;;;;;8.54;36.67;101135.97;5032200;28;20050;-78
2023/03/16 12:06:20;;;;;;;3.10;1.90;;;;;;;8.61;36.43;101120.00;5028684;28;20448;-78
2023/03/16 12:09:09;;;;;;;3.83;2.45;;;;;;;8.70;36.45;101130.25;5031159;28;20056;-78
2023/03/16 12:11:44;;;;;;;3.80;2.42;;;;;;;8.77;36.90;101115.13;5031492;28;20045;-78